»·PEaware :: N136GH KMRY-KDVO

N136GH :: KMRY-KDVO

FLIGHT INFORMATION

Flight Status: Arrived
Operator: Privately registered:
United States
More flights under this callsign
Pilot: Gabor H. (24209)
Aircraft: BEECH AIRCRAFT BONANZA
(BE36)
More flights by this aircraft type
Origin: KMRY Monterey Peninsula
United States
Destination: KDVO Gnoss
United States
More flights between these airports :: More routes between these airports
Route: +MRY5 SHOEY V27 PYE
File this flight plan on PilotEdge
Remarks:
Altitude:
(Current/Filed)
8,000ft
Speed:
(Current/Filed)
160kts
Departed: 02-Apr-20 07:22 AM
Arrived: 02-Apr-20 08:19 AM
Distance/Time
Traveled:
99nm/0:57
Distance/Time
To Go:
Arrived

Flight Plot

Page will automatically refresh every two minutes.

Flight plan parsing failed; only flown route is shown


Map Options




Map Legend


Flown Route
Filed Route
Departure Airport
Arrival Airport
Navaid (VOR, NDB)
Fix

Horizontal Profiles

Position Reports

Time Latitude Longitude Heading Altitude Ground
Speed
02-Apr-20 07:03 36.588685 -121.853665 293 164ft 0kts
02-Apr-20 07:04 36.588685 -121.853665 293 164ft 0kts
02-Apr-20 07:05 36.588685 -121.853665 293 164ft 0kts
02-Apr-20 07:06 36.588685 -121.853665 293 164ft 0kts
02-Apr-20 07:07 36.588685 -121.853665 293 164ft 0kts
02-Apr-20 07:08 36.588685 -121.853665 293 164ft 0kts
02-Apr-20 07:09 36.588685 -121.853665 293 164ft 0kts
02-Apr-20 07:10 36.588685 -121.853665 293 164ft 0kts
02-Apr-20 07:11 36.588685 -121.853665 293 164ft 0kts
02-Apr-20 07:12 36.588685 -121.853665 293 164ft 0kts
02-Apr-20 07:13 36.588685 -121.853665 293 164ft 0kts
02-Apr-20 07:14 36.588685 -121.853665 293 164ft 0kts
02-Apr-20 07:15 36.588517 -121.851301 114 166ft 19kts
02-Apr-20 07:16 36.586164 -121.844758 112 203ft 20kts
02-Apr-20 07:17 36.583671 -121.837414 115 262ft 20kts
02-Apr-20 07:18 36.582827 -121.834801 102 248ft 0kts
02-Apr-20 07:19 36.582827 -121.834801 102 248ft 0kts
02-Apr-20 07:20 36.582827 -121.834801 102 248ft 0kts
02-Apr-20 07:21 36.586200 -121.841857 296 290ft 91kts
02-Apr-20 07:22 36.597987 -121.878619 303 1206ft 126kts
02-Apr-20 07:23 36.630037 -121.894251 346 2211ft 131kts
02-Apr-20 07:24 36.664948 -121.908153 346 3205ft 133kts
02-Apr-20 07:25 36.700389 -121.921419 338 4196ft 133kts
02-Apr-20 07:26 36.717058 -121.955262 277 5189ft 115kts
02-Apr-20 07:27 36.723837 -121.995366 275 6004ft 119kts
02-Apr-20 07:28 36.730242 -122.035779 275 6808ft 117kts
02-Apr-20 07:29 36.735879 -122.075974 289 7456ft 128kts
02-Apr-20 07:30 36.744317 -122.124883 289 7704ft 155kts
02-Apr-20 07:31 36.771897 -122.158733 330 7967ft 147kts
02-Apr-20 07:32 36.806514 -122.189297 329 7964ft 156kts
02-Apr-20 07:33 36.842387 -122.220832 327 7967ft 157kts
02-Apr-20 07:34 36.877589 -122.252123 326 7972ft 154kts
02-Apr-20 07:35 36.912278 -122.282854 325 7980ft 152kts
02-Apr-20 07:36 36.946583 -122.313189 324 7990ft 150kts
02-Apr-20 07:37 36.980649 -122.343527 324 7998ft 150kts
02-Apr-20 07:38 37.014738 -122.373910 325 8003ft 150kts
02-Apr-20 07:39 37.049002 -122.404407 326 7988ft 152kts
02-Apr-20 07:40 37.083494 -122.435119 326 7988ft 152kts
02-Apr-20 07:41 37.122254 -122.455824 340 7994ft 153kts
02-Apr-20 07:42 37.162921 -122.473388 341 7993ft 154kts
02-Apr-20 07:43 37.203645 -122.490731 341 7993ft 154kts
02-Apr-20 07:44 37.244384 -122.508053 341 7993ft 154kts
02-Apr-20 07:45 37.285022 -122.525346 341 7992ft 154kts
02-Apr-20 07:46 37.325844 -122.542737 341 7992ft 154kts
02-Apr-20 07:47 37.366446 -122.560055 341 7992ft 154kts
02-Apr-20 07:48 37.407182 -122.577452 341 7992ft 154kts
02-Apr-20 07:49 37.447852 -122.594845 341 7991ft 154kts
02-Apr-20 07:50 37.488579 -122.612272 340 7991ft 154kts
02-Apr-20 07:51 37.529212 -122.629700 341 7991ft 154kts
02-Apr-20 07:52 37.569861 -122.647152 341 7991ft 154kts
02-Apr-20 07:53 37.610185 -122.664467 340 7992ft 154kts
02-Apr-20 07:54 37.650883 -122.681961 340 7992ft 154kts
02-Apr-20 07:55 37.691535 -122.699533 340 7992ft 154kts
02-Apr-20 07:56 37.732182 -122.717076 340 7992ft 154kts
02-Apr-20 07:57 37.772885 -122.734639 340 7992ft 154kts
02-Apr-20 07:58 37.813587 -122.752223 340 7994ft 155kts
02-Apr-20 07:59 37.854150 -122.769896 340 7237ft 154kts
02-Apr-20 08:00 37.866793 -122.807566 214 5584ft 178kts
02-Apr-20 08:01 37.844125 -122.774224 63 4059ft 165kts
02-Apr-20 08:02 37.850634 -122.715676 78 3060ft 175kts
02-Apr-20 08:03 37.853067 -122.654266 98 2494ft 165kts
02-Apr-20 08:04 37.840090 -122.595269 107 2117ft 191kts
02-Apr-20 08:05 37.824485 -122.531211 102 1993ft 189kts
02-Apr-20 08:06 37.821843 -122.467001 86 1993ft 187kts
02-Apr-20 08:07 37.842600 -122.413314 23 1682ft 186kts
02-Apr-20 08:08 37.891100 -122.406976 324 1464ft 181kts
02-Apr-20 08:09 37.905913 -122.458630 298 1490ft 154kts
02-Apr-20 08:10 37.934441 -122.481120 15 1486ft 116kts
02-Apr-20 08:11 37.966268 -122.468119 16 1507ft 138kts
02-Apr-20 08:12 38.005317 -122.451889 15 1502ft 153kts
02-Apr-20 08:13 38.046768 -122.459263 344 1382ft 161kts
02-Apr-20 08:15 38.090374 -122.476572 327 997ft 147kts
02-Apr-20 08:16 38.111494 -122.505286 300 910ft 103kts
02-Apr-20 08:17 38.124579 -122.536782 302 738ft 94kts
02-Apr-20 08:18 38.141805 -122.555813 330 6ft 67kts
02-Apr-20 08:19 38.143355 -122.557560 153 6ft 19kts
02-Apr-20 08:20 38.139928 -122.556266 241 6ft 13kts
02-Apr-20 08:21 38.139700 -122.557064 328 6ft 0kts
02-Apr-20 08:22 38.139700 -122.557064 328 6ft 0kts
02-Apr-20 08:23 38.139700 -122.557064 328 6ft 0kts
02-Apr-20 08:24 38.139700 -122.557064 328 6ft 0kts
02-Apr-20 08:25 38.139700 -122.557064 328 6ft 0kts
02-Apr-20 08:26 38.139700 -122.557064 328 6ft 0kts
02-Apr-20 08:27 38.139700 -122.557064 328 6ft 0kts
02-Apr-20 08:28 38.139700 -122.557064 328 6ft 0kts
02-Apr-20 08:29 38.139700 -122.557064 328 6ft 0kts
02-Apr-20 08:30 38.139700 -122.557064 328 6ft 0kts

Navigation Log

Ident Type
Flight plan parsing failed, navigation log unavailable